Time;durP1;ratioP1;P1;durP2;ratioP2;P2;SDS_P1;SDS_P2;PMS_P1;PMS_P2;Temp;Humidity;BMP_temperature;BMP_pressure;BME280_temperature;BME280_humidity;BME280_pressure;Samples;Min_cycle;Max_cycle;Signal;HPM_P1;HPM_P2
2021/06/24 00:02:21;;;;;;;15.05;5.20;;;;;;;25.14;57.24;100281.41;5095686;28;20028;-64
2021/06/24 00:04:46;;;;;;;14.52;4.47;;;;;;;25.09;57.26;100280.03;5095715;28;20121;-63
2021/06/24 00:07:12;;;;;;;16.55;5.65;;;;;;;25.07;58.37;100276.09;5096058;28;20414;-63
2021/06/24 00:09:37;;;;;;;20.23;5.63;;;;;;;25.08;57.90;100278.47;5095645;28;20047;-63
2021/06/24 00:12:03;;;;;;;22.13;6.15;;;;;;;25.08;58.62;100263.28;5095556;28;20373;-63
2021/06/24 00:14:28;;;;;;;16.95;6.72;;;;;;;25.05;58.46;100264.31;5095568;28;20039;-63
2021/06/24 00:16:54;;;;;;;15.07;5.70;;;;;;;25.01;58.18;100244.41;5095561;28;20020;-64
2021/06/24 00:19:19;;;;;;;12.15;5.57;;;;;;;24.95;58.11;100240.66;5087679;28;20427;-63
2021/06/24 00:21:44;;;;;;;13.18;5.38;;;;;;;24.86;58.32;100237.94;5095602;28;20012;-64
2021/06/24 00:24:10;;;;;;;15.38;5.32;;;;;;;24.79;58.09;100227.66;5095341;28;20039;-64
2021/06/24 00:26:35;;;;;;;11.80;5.32;;;;;;;24.76;58.26;100231.56;5095460;28;20024;-63
2021/06/24 00:29:00;;;;;;;16.58;5.72;;;;;;;24.67;59.04;100228.84;5095360;28;20020;-63
2021/06/24 00:31:26;;;;;;;12.45;5.38;;;;;;;24.60;58.86;100235.00;5095356;28;20463;-64
2021/06/24 00:33:51;;;;;;;19.08;5.38;;;;;;;24.56;58.33;100229.50;5095383;28;20107;-64
2021/06/24 00:36:16;;;;;;;13.43;5.50;;;;;;;24.51;58.88;100235.97;5095355;28;20111;-64
2021/06/24 00:38:42;;;;;;;13.80;5.03;;;;;;;24.46;58.77;100230.16;5095422;28;20058;-64
2021/06/24 00:41:07;;;;;;;14.13;6.10;;;;;;;24.44;58.83;100236.41;5095179;28;20036;-64
2021/06/24 00:43:33;;;;;;;10.13;4.82;;;;;;;24.42;58.71;100233.25;5077483;28;20256;-64
2021/06/24 00:45:58;;;;;;;15.02;5.40;;;;;;;24.39;59.63;100230.59;5095432;28;20028;-64
2021/06/24 00:48:23;;;;;;;10.20;5.20;;;;;;;24.37;59.40;100230.28;5095123;28;20032;-63
2021/06/24 00:50:49;;;;;;;14.07;4.88;;;;;;;24.34;59.16;100227.13;5095273;28;20111;-63
2021/06/24 00:53:15;;;;;;;14.00;5.82;;;;;;;24.34;59.89;100221.38;5095516;28;20024;-63
2021/06/24 00:55:45;;;;;;;19.15;5.28;;;;;;;24.33;59.72;100219.00;5095031;28;20034;-63
2021/06/24 00:58:15;;;;;;;20.42;6.65;;;;;;;24.31;59.20;100213.75;5095471;28;20028;-65
2021/06/24 01:00:42;;;;;;;13.40;5.22;;;;;;;24.29;59.26;100213.47;5095151;28;20016;-63
2021/06/24 01:03:08;;;;;;;11.45;5.93;;;;;;;24.27;60.32;100218.91;5095312;28;20024;-63
2021/06/24 01:05:38;;;;;;;13.15;5.97;;;;;;;24.24;59.74;100222.00;5097899;28;20103;-63
2021/06/24 01:08:05;;;;;;;14.75;5.32;;;;;;;24.21;59.91;100226.66;5099040;28;20308;-63
2021/06/24 01:10:31;;;;;;;18.55;5.50;;;;;;;24.19;59.59;100234.19;5098581;28;20119;-63
2021/06/24 01:12:56;;;;;;;17.80;5.75;;;;;;;24.19;60.55;100225.59;5098970;28;20459;-62
2021/06/24 01:15:23;;;;;;;14.40;6.03;;;;;;;24.15;60.70;100225.81;5098981;28;20020;-63
2021/06/24 01:17:49;;;;;;;13.85;5.43;;;;;;;24.09;60.20;100224.91;5098851;28;20016;-63
2021/06/24 01:20:16;;;;;;;10.32;5.32;;;;;;;24.03;60.13;100216.22;5099217;28;20036;-64
2021/06/24 01:22:42;;;;;;;12.63;5.20;;;;;;;23.99;60.67;100212.78;5098866;28;20027;-66
2021/06/24 01:25:08;;;;;;;12.45;5.25;;;;;;;23.98;60.13;100219.03;5098484;28;20020;-63
2021/06/24 01:27:33;;;;;;;10.45;5.57;;;;;;;23.97;60.15;100226.06;5098643;28;20032;-63
2021/06/24 01:29:58;;;;;;;13.85;5.18;;;;;;;23.95;60.86;100215.06;5080787;28;20031;-63
2021/06/24 01:32:28;;;;;;;15.43;5.90;;;;;;;23.92;60.80;100216.06;5098714;28;20088;-63
2021/06/24 01:34:53;;;;;;;9.48;5.50;;;;;;;23.90;61.07;100212.13;5080537;28;20019;-63
2021/06/24 01:37:19;;;;;;;8.15;5.18;;;;;;;23.88;61.79;100223.31;5088961;28;20433;-63
2021/06/24 01:39:44;;;;;;;17.23;5.95;;;;;;;23.84;61.28;100214.94;5098176;28;20403;-63
2021/06/24 01:42:13;;;;;;;19.38;6.03;;;;;;;23.78;61.25;100216.09;5098425;28;20030;-63
2021/06/24 01:44:38;;;;;;;12.60;5.63;;;;;;;23.73;61.54;100227.00;5098571;28;20026;-64
2021/06/24 01:47:07;;;;;;;15.00;5.70;;;;;;;23.72;61.69;100216.03;5098463;28;20091;-62
2021/06/24 01:49:32;;;;;;;17.48;5.68;;;;;;;23.69;61.90;100217.81;5080437;28;20023;-63
2021/06/24 01:51:57;;;;;;;11.88;5.75;;;;;;;23.68;63.04;100216.25;5080504;28;20070;-62
2021/06/24 01:54:23;;;;;;;16.90;6.03;;;;;;;23.63;62.01;100216.94;5098274;28;20027;-64
2021/06/24 01:56:50;;;;;;;16.58;5.95;;;;;;;23.60;61.47;100220.03;5097761;28;20027;-63
2021/06/24 01:59:15;;;;;;;10.40;5.95;;;;;;;23.55;61.44;100217.81;5098188;28;20437;-63
2021/06/24 02:01:41;;;;;;;13.35;5.32;;;;;;;23.52;61.84;100216.72;5098167;28;20031;-63
2021/06/24 02:04:07;;;;;;;19.60;5.60;;;;;;;23.51;61.72;100217.22;5097917;28;20043;-63
2021/06/24 02:06:33;;;;;;;15.98;5.50;;;;;;;23.50;61.81;100215.63;5097967;28;20097;-63
2021/06/24 02:08:58;;;;;;;10.07;5.18;;;;;;;23.50;61.16;100219.28;5097734;28;20247;-63
2021/06/24 02:11:24;;;;;;;12.90;5.63;;;;;;;23.50;61.14;100221.38;5097960;28;20065;-65
2021/06/24 02:13:49;;;;;;;12.85;5.85;;;;;;;23.48;60.50;100216.13;5097728;28;20028;-63
2021/06/24 02:16:15;;;;;;;16.70;6.07;;;;;;;23.47;60.34;100216.63;5096911;28;20048;-64
2021/06/24 02:18:40;;;;;;;11.30;5.85;;;;;;;23.47;60.33;100220.28;5097659;28;20118;-63
2021/06/24 02:21:06;;;;;;;14.68;5.72;;;;;;;23.47;59.88;100210.91;5097632;28;20030;-63
2021/06/24 02:23:31;;;;;;;12.75;5.68;;;;;;;23.45;59.96;100220.00;5097238;28;20028;-64
2021/06/24 02:25:56;;;;;;;13.93;5.50;;;;;;;23.43;60.24;100216.84;5097722;28;20042;-63
2021/06/24 02:28:22;;;;;;;13.15;5.45;;;;;;;23.41;60.39;100220.19;5097419;28;20050;-65
2021/06/24 02:30:48;;;;;;;21.08;6.18;;;;;;;23.38;60.25;100217.53;5079402;28;20027;-64
2021/06/24 02:33:15;;;;;;;13.82;5.65;;;;;;;23.36;60.81;100217.25;5097678;28;20079;-62
2021/06/24 02:35:46;;;;;;;17.48;5.75;;;;;;;23.34;60.47;100211.22;5097460;28;20020;-64
2021/06/24 02:38:11;;;;;;;13.02;5.75;;;;;;;23.34;59.91;100202.63;5097248;28;20380;-64
2021/06/24 02:40:37;;;;;;;10.80;5.20;;;;;;;23.34;60.06;100208.34;5097479;28;20052;-64
2021/06/24 02:43:03;;;;;;;16.70;5.82;;;;;;;23.33;60.54;100218.25;5096813;28;20257;-63
2021/06/24 02:45:29;;;;;;;8.95;5.45;;;;;;;23.28;60.22;100205.38;5097485;28;20023;-63
2021/06/24 02:47:54;;;;;;;17.15;5.95;;;;;;;23.27;59.97;100206.66;5097111;28;20396;-65
2021/06/24 02:50:20;;;;;;;11.15;6.13;;;;;;;23.28;60.30;100211.09;5097203;28;20046;-63
2021/06/24 02:52:45;;;;;;;11.05;6.03;;;;;;;23.29;59.33;100206.19;5097112;28;20050;-63
2021/06/24 02:55:11;;;;;;;12.23;5.88;;;;;;;23.28;59.12;100202.50;5096896;28;20296;-66
2021/06/24 02:57:36;;;;;;;12.95;5.65;;;;;;;23.24;59.83;100204.00;5097096;28;20043;-63
2021/06/24 03:00:10;;;;;;;14.95;6.32;;;;;;;23.17;59.95;100210.13;5096765;28;20034;-62
2021/06/24 03:02:36;;;;;;;10.52;5.53;;;;;;;23.13;59.21;100211.13;5097304;28;20024;-63
2021/06/24 03:05:03;;;;;;;13.50;5.97;;;;;;;23.10;58.78;100219.91;5096614;28;20012;-65
2021/06/24 03:07:30;;;;;;;9.05;5.45;;;;;;;23.06;58.74;100217.25;5096582;28;20114;-63
2021/06/24 03:09:55;;;;;;;15.60;6.22;;;;;;;23.03;58.96;100223.97;5096731;28;20020;-63
2021/06/24 03:12:21;;;;;;;11.73;5.88;;;;;;;23.02;58.64;100218.75;5096908;28;20032;-63
2021/06/24 03:14:46;;;;;;;17.20;5.93;;;;;;;22.98;59.47;100210.31;5096710;28;20028;-63
2021/06/24 03:17:11;;;;;;;12.40;6.18;;;;;;;22.96;60.03;100212.09;5096561;28;20027;-62
2021/06/24 03:19:37;;;;;;;8.77;5.47;;;;;;;22.95;61.52;100224.84;5096620;28;20028;-63
2021/06/24 03:22:02;;;;;;;12.63;6.07;;;;;;;22.92;61.59;100217.22;5096094;28;20023;-64
2021/06/24 03:24:28;;;;;;;17.75;6.30;;;;;;;22.91;61.52;100221.38;5096706;28;20541;-63
2021/06/24 03:26:53;;;;;;;11.20;6.35;;;;;;;22.90;61.75;100226.31;5096342;28;20426;-64
2021/06/24 03:29:18;;;;;;;11.27;6.07;;;;;;;22.89;61.09;100224.75;5096119;28;20036;-63
2021/06/24 03:31:45;;;;;;;13.45;6.05;;;;;;;22.93;60.88;100218.81;5096539;28;20028;-63
2021/06/24 03:34:10;;;;;;;14.10;5.85;;;;;;;22.95;61.14;100228.50;5096409;28;20020;-64
2021/06/24 03:36:36;;;;;;;10.52;5.53;;;;;;;22.99;60.66;100229.09;5095872;28;20111;-64
2021/06/24 03:39:02;;;;;;;11.85;5.53;;;;;;;23.02;60.25;100227.34;5096285;28;20095;-66
2021/06/24 03:41:27;;;;;;;12.55;5.93;;;;;;;23.04;60.22;100227.63;5093520;28;20438;-66
2021/06/24 03:43:55;;;;;;;13.40;6.68;;;;;;;23.04;60.74;100237.03;5091878;28;20099;-65
2021/06/24 03:46:24;;;;;;;12.32;5.68;;;;;;;23.04;60.42;100236.22;5082676;28;20450;-63
2021/06/24 03:48:50;;;;;;;10.98;5.82;;;;;;;23.07;60.04;100238.09;5092052;28;20035;-66
2021/06/24 03:51:16;;;;;;;15.13;6.45;;;;;;;23.06;60.30;100245.91;5090398;28;20051;-63
2021/06/24 03:53:41;;;;;;;19.08;7.25;;;;;;;23.08;61.26;100240.47;5096329;28;20400;-65
2021/06/24 03:56:08;;;;;;;15.00;5.95;;;;;;;23.10;61.36;100240.78;5095932;28;20327;-63
2021/06/24 03:58:34;;;;;;;13.68;6.20;;;;;;;23.17;59.99;100228.13;5095714;28;20027;-65
2021/06/24 04:00:59;;;;;;;16.13;5.72;;;;;;;23.22;59.89;100233.16;5095648;28;20028;-62
2021/06/24 04:03:24;;;;;;;18.42;6.82;;;;;;;23.28;60.10;100236.13;5095354;28;20049;-64
2021/06/24 04:05:50;;;;;;;19.10;6.65;;;;;;;23.31;60.86;100235.16;5095672;28;20016;-63
2021/06/24 04:08:15;;;;;;;16.75;6.85;;;;;;;23.33;60.75;100236.25;5092184;28;20052;-66
2021/06/24 04:10:41;;;;;;;12.90;6.90;;;;;;;23.37;60.54;100233.16;5074418;28;20407;-62
2021/06/24 04:13:06;;;;;;;12.93;6.63;;;;;;;23.42;60.43;100238.19;5087109;28;20051;-63
2021/06/24 04:15:33;;;;;;;14.65;6.28;;;;;;;23.46;60.62;100233.06;5090656;28;20016;-62
2021/06/24 04:18:06;;;;;;;15.45;6.70;;;;;;;23.53;60.02;100228.97;5090953;28;20032;-63
2021/06/24 04:20:32;;;;;;;14.38;7.03;;;;;;;23.62;59.48;100229.72;5093355;28;20073;-64
2021/06/24 04:22:58;;;;;;;16.63;7.47;;;;;;;23.73;59.25;100231.97;5095140;28;20027;-64
2021/06/24 04:25:24;;;;;;;18.33;6.35;;;;;;;23.83;59.79;100219.09;5088318;28;20338;-64
2021/06/24 04:27:50;;;;;;;15.27;6.88;;;;;;;23.90;60.17;100223.63;5095416;28;20024;-62
2021/06/24 04:30:17;;;;;;;18.20;6.32;;;;;;;23.98;59.61;100216.16;5091221;28;20024;-65
2021/06/24 04:32:42;;;;;;;21.90;6.68;;;;;;;24.09;59.36;100227.78;5095191;28;20032;-65
2021/06/24 04:35:08;;;;;;;13.32;6.72;;;;;;;24.18;58.95;100216.19;5094055;28;20402;-64
2021/06/24 04:37:34;;;;;;;13.90;7.20;;;;;;;24.27;59.04;100221.78;5087715;28;20024;-64
2021/06/24 04:40:00;;;;;;;23.95;7.13;;;;;;;24.34;58.95;100224.25;5094111;28;20046;-64
2021/06/24 04:42:25;;;;;;;17.45;6.88;;;;;;;24.42;58.64;100224.63;5070402;28;20055;-67
2021/06/24 04:44:50;;;;;;;18.48;6.45;;;;;;;24.48;58.12;100231.22;5055428;28;20021;-62
2021/06/24 04:47:16;;;;;;;12.80;6.63;;;;;;;24.55;58.42;100232.88;5057608;28;20436;-67
2021/06/24 04:49:42;;;;;;;11.38;6.60;;;;;;;24.63;58.31;100228.25;5054318;28;20462;-63
2021/06/24 04:52:08;;;;;;;11.75;6.78;;;;;;;24.70;58.28;100232.78;5055751;28;20029;-63
2021/06/24 04:54:34;;;;;;;12.55;6.95;;;;;;;24.76;57.63;100228.69;5056893;28;20020;-64
2021/06/24 04:56:59;;;;;;;23.10;7.93;;;;;;;24.85;57.51;100231.41;5054856;28;20024;-64
2021/06/24 04:59:25;;;;;;;14.80;7.55;;;;;;;24.92;57.02;100230.94;5057013;28;20329;-65
2021/06/24 05:01:50;;;;;;;14.30;7.50;;;;;;;25.00;56.88;100216.97;5055149;28;20020;-64
2021/06/24 05:04:15;;;;;;;13.35;6.85;;;;;;;25.10;56.31;100218.34;5047429;28;20136;-65
2021/06/24 05:06:41;;;;;;;17.75;7.28;;;;;;;25.19;56.07;100226.81;5057153;28;20052;-64
2021/06/24 05:09:07;;;;;;;12.82;6.20;;;;;;;25.28;56.49;100217.22;5055850;28;20103;-64
2021/06/24 05:11:32;;;;;;;21.90;6.50;;;;;;;25.38;55.98;100220.69;5046158;28;20024;-63
2021/06/24 05:13:57;;;;;;;17.60;6.95;;;;;;;25.46;55.84;100225.47;5039417;28;20074;-64
2021/06/24 05:16:23;;;;;;;15.80;5.72;;;;;;;25.57;55.29;100234.22;5039947;28;20410;-63
2021/06/24 05:18:49;;;;;;;18.25;6.32;;;;;;;25.68;55.23;100229.88;5041198;28;20032;-63
2021/06/24 05:21:14;;;;;;;15.38;6.35;;;;;;;25.78;53.54;100225.50;5039924;28;20401;-64
2021/06/24 05:23:42;;;;;;;19.48;6.15;;;;;;;25.85;52.89;100225.03;5041356;28;20025;-64
2021/06/24 05:26:08;;;;;;;16.92;6.03;;;;;;;25.95;52.83;100235.03;5038056;28;20321;-63
2021/06/24 05:28:33;;;;;;;12.35;6.25;;;;;;;26.02;52.36;100228.81;5047803;28;20024;-64
2021/06/24 05:30:59;;;;;;;16.23;5.97;;;;;;;26.11;52.07;100222.84;5041422;28;20372;-64
2021/06/24 05:33:24;;;;;;;14.60;5.50;;;;;;;26.22;51.46;100227.06;5037984;28;20021;-64
2021/06/24 05:35:49;;;;;;;10.80;5.25;;;;;;;26.35;51.53;100238.97;5037966;28;20034;-63
2021/06/24 05:38:16;;;;;;;14.95;5.25;;;;;;;26.47;50.28;100237.72;5037820;28;20021;-64
2021/06/24 05:40:46;;;;;;;11.68;4.93;;;;;;;26.58;49.89;100234.09;5038331;28;20034;-63
2021/06/24 05:43:13;;;;;;;13.95;5.50;;;;;;;26.68;49.35;100227.59;5038388;28;20045;-64
2021/06/24 05:45:38;;;;;;;10.75;5.10;;;;;;;26.82;48.95;100227.88;5038468;28;20029;-63
2021/06/24 05:48:04;;;;;;;14.73;5.38;;;;;;;26.92;48.70;100229.22;5037979;28;20065;-64
2021/06/24 05:50:30;;;;;;;13.80;5.32;;;;;;;27.03;49.82;100226.38;5038071;28;20025;-64
2021/06/24 05:52:55;;;;;;;15.73;5.40;;;;;;;27.13;49.57;100221.97;5037923;28;20428;-64
2021/06/24 05:55:47;;;;;;;21.45;5.72;;;;;;;27.25;49.98;100212.00;5020567;28;20060;-63
2021/06/24 05:58:09;;;;;;;17.55;4.93;;;;;;;27.35;47.55;100216.19;5037679;28;20035;-64
2021/06/24 06:00:34;;;;;;;12.57;3.97;;;;;;;27.46;47.38;100214.66;5037848;28;20033;-64
2021/06/24 06:02:59;;;;;;;12.60;4.03;;;;;;;27.56;46.41;100218.81;5045583;28;20021;-64
2021/06/24 06:05:26;;;;;;;14.00;4.18;;;;;;;27.66;44.85;100226.72;5046596;28;20254;-64
2021/06/24 06:07:51;;;;;;;12.45;4.00;;;;;;;27.74;44.57;100229.88;5038026;28;20073;-64
2021/06/24 06:10:17;;;;;;;11.20;3.80;;;;;;;27.86;43.76;100236.41;5037620;28;20053;-65
2021/06/24 06:12:42;;;;;;;15.77;3.72;;;;;;;27.98;43.73;100235.09;5037944;28;20025;-63
2021/06/24 06:15:08;;;;;;;16.67;4.20;;;;;;;28.09;43.92;100234.28;5037212;28;20041;-64
2021/06/24 06:17:34;;;;;;;17.88;4.05;;;;;;;28.16;43.85;100242.41;5038052;28;20052;-64
2021/06/24 06:19:59;;;;;;;14.20;3.55;;;;;;;28.22;43.22;100234.53;5037519;28;20061;-63
2021/06/24 06:22:24;;;;;;;15.55;4.18;;;;;;;28.28;43.20;100246.88;5037594;28;20361;-63
2021/06/24 06:24:50;;;;;;;12.23;4.10;;;;;;;28.37;43.78;100240.00;5037657;28;20029;-64
2021/06/24 06:27:15;;;;;;;15.30;4.53;;;;;;;28.41;43.08;100252.88;5037144;28;20067;-64
2021/06/24 06:29:40;;;;;;;15.30;3.70;;;;;;;28.49;43.46;100248.13;5051192;28;20060;-63
2021/06/24 06:32:06;;;;;;;14.40;4.15;;;;;;;28.57;43.62;100252.03;5037446;28;20051;-63
2021/06/24 06:34:32;;;;;;;15.57;4.35;;;;;;;28.68;42.72;100264.84;5037466;28;20428;-63
2021/06/24 06:36:57;;;;;;;10.68;3.45;;;;;;;28.79;42.68;100261.94;5037372;28;20108;-64
2021/06/24 06:39:23;;;;;;;12.23;3.67;;;;;;;28.87;43.07;100265.84;5019814;28;20040;-64
2021/06/24 06:41:48;;;;;;;15.18;3.75;;;;;;;28.93;41.44;100257.94;5037160;28;20259;-64
2021/06/24 06:44:14;;;;;;;11.95;3.67;;;;;;;29.03;41.60;100261.28;5036968;28;20025;-65
2021/06/24 06:46:39;;;;;;;12.00;3.78;;;;;;;29.14;40.80;100255.44;5037121;28;20025;-63
2021/06/24 06:49:04;;;;;;;13.03;3.73;;;;;;;29.21;41.33;100255.66;5037083;28;20108;-64
2021/06/24 06:51:30;;;;;;;10.90;4.07;;;;;;;29.33;43.12;100252.69;5036861;28;20265;-64
2021/06/24 06:53:55;;;;;;;11.43;3.58;;;;;;;29.42;41.04;100258.16;5037174;28;20021;-64
2021/06/24 06:56:20;;;;;;;10.95;3.25;;;;;;;29.52;41.23;100248.59;5036787;28;20022;-64
2021/06/24 06:58:46;;;;;;;15.65;3.38;;;;;;;29.64;40.67;100252.22;5036708;28;20071;-64
2021/06/24 07:01:11;;;;;;;14.55;3.53;;;;;;;29.73;42.00;100260.56;5036770;28;20038;-63
2021/06/24 07:03:37;;;;;;;12.70;3.63;;;;;;;29.85;41.60;100255.44;5045032;28;20104;-64
2021/06/24 07:06:02;;;;;;;15.60;3.13;;;;;;;29.95;41.96;100258.78;5044353;28;20321;-64
2021/06/24 07:08:27;;;;;;;8.50;3.42;;;;;;;30.02;41.63;100261.06;5018766;28;20397;-64
2021/06/24 07:10:52;;;;;;;10.80;3.38;;;;;;;30.11;39.42;100249.16;5036726;28;20033;-64
2021/06/24 07:13:18;;;;;;;12.77;3.40;;;;;;;30.20;40.06;100257.50;5036576;28;20078;-64
2021/06/24 07:15:44;;;;;;;9.55;3.38;;;;;;;30.29;39.18;100247.66;5036557;28;20666;-64
2021/06/24 07:18:12;;;;;;;5.67;2.77;;;;;;;30.42;38.51;100248.56;5036417;28;20033;-64
2021/06/24 07:20:38;;;;;;;8.38;3.40;;;;;;;30.50;37.69;100248.72;5036353;28;20285;-64
2021/06/24 07:23:03;;;;;;;14.88;3.65;;;;;;;30.55;38.70;100250.75;5036244;28;20014;-64
2021/06/24 07:25:28;;;;;;;13.77;2.77;;;;;;;30.61;38.50;100248.59;5036201;28;20129;-64
2021/06/24 07:27:54;;;;;;;8.60;3.20;;;;;;;30.68;37.25;100245.09;5040178;28;20262;-64
2021/06/24 07:30:20;;;;;;;10.55;2.90;;;;;;;30.79;37.00;100252.06;5046008;28;20112;-64
2021/06/24 07:32:45;;;;;;;7.93;3.33;;;;;;;30.88;36.64;100245.88;5036117;28;20061;-64
2021/06/24 07:35:11;;;;;;;10.85;2.97;;;;;;;30.98;38.42;100233.34;5018719;28;20072;-64
2021/06/24 07:37:37;;;;;;;13.68;3.40;;;;;;;31.14;37.72;100236.53;5016040;28;20082;-64
2021/06/24 07:40:04;;;;;;;18.52;2.88;;;;;;;31.32;37.41;100242.34;5036047;28;20029;-64
2021/06/24 07:42:30;;;;;;;18.42;3.28;;;;;;;31.42;36.60;100247.75;5035957;28;20030;-64
2021/06/24 07:44:55;;;;;;;22.00;3.35;;;;;;;31.48;36.21;100237.59;5035964;28;20025;-64
2021/06/24 07:47:20;;;;;;;9.25;3.58;;;;;;;31.58;36.84;100227.16;5035836;28;20329;-64
2021/06/24 07:49:47;;;;;;;13.15;2.78;;;;;;;31.59;36.44;100231.63;5035888;28;20317;-64
2021/06/24 07:52:13;;;;;;;15.13;3.72;;;;;;;31.65;36.49;100223.59;5035978;28;20021;-64
2021/06/24 07:54:38;;;;;;;7.97;3.00;;;;;;;31.75;36.89;100226.09;5035477;28;20037;-64
2021/06/24 07:57:04;;;;;;;15.77;3.38;;;;;;;31.76;36.69;100228.44;5035650;28;20018;-64
2021/06/24 07:59:29;;;;;;;12.00;3.00;;;;;;;31.85;36.62;100224.34;5035908;28;20439;-64
2021/06/24 08:01:54;;;;;;;13.55;3.80;;;;;;;31.96;36.31;100224.13;5035409;28;20040;-64
2021/06/24 08:04:20;;;;;;;19.37;3.53;;;;;;;32.10;36.16;100243.16;5048485;28;20066;-64
2021/06/24 08:06:45;;;;;;;19.27;3.07;;;;;;;32.18;35.52;100232.41;5039411;28;20345;-64
2021/06/24 08:09:13;;;;;;;18.40;3.40;;;;;;;32.27;36.06;100240.72;5035351;28;20637;-64
2021/06/24 08:11:39;;;;;;;23.08;3.85;;;;;;;32.32;35.15;100241.16;5035366;28;20334;-64
2021/06/24 08:14:04;;;;;;;12.73;2.90;;;;;;;32.32;35.25;100236.13;5034623;28;20113;-64
2021/06/24 08:16:30;;;;;;;17.80;3.58;;;;;;;32.42;35.12;100237.28;5035679;28;20365;-63
2021/06/24 08:18:56;;;;;;;14.07;3.92;;;;;;;32.45;34.76;100244.09;5035205;28;20021;-64
2021/06/24 08:21:21;;;;;;;21.77;3.60;;;;;;;32.55;35.56;100245.19;5017995;28;20029;-64
2021/06/24 08:23:47;;;;;;;13.98;3.67;;;;;;;32.59;34.83;100242.72;5035393;28;20059;-64
2021/06/24 08:26:12;;;;;;;18.85;3.88;;;;;;;32.53;34.84;100239.94;5035039;28;20033;-64
2021/06/24 08:28:38;;;;;;;21.60;3.33;;;;;;;32.62;35.52;100230.00;5045657;28;20024;-64
2021/06/24 08:31:03;;;;;;;11.85;3.33;;;;;;;32.67;34.93;100243.63;5038906;28;20029;-64
2021/06/24 08:33:28;;;;;;;14.48;3.30;;;;;;;32.64;35.36;100238.94;5035313;28;20312;-64
2021/06/24 08:35:54;;;;;;;17.08;3.47;;;;;;;32.73;33.99;100246.41;5035188;28;20083;-64
2021/06/24 08:38:19;;;;;;;18.27;2.83;;;;;;;32.85;33.34;100247.75;5017888;28;20029;-64
2021/06/24 08:40:45;;;;;;;40.45;4.50;;;;;;;32.83;33.76;100245.41;5035079;28;20021;-64
2021/06/24 08:43:11;;;;;;;15.52;3.80;;;;;;;32.91;33.42;100241.81;5035148;28;20031;-64
2021/06/24 08:45:39;;;;;;;22.67;3.72;;;;;;;33.04;33.28;100248.38;5035591;28;20018;-64
2021/06/24 08:48:12;;;;;;;9.90;3.30;;;;;;;33.18;32.98;100243.31;5035151;28;20025;-64
2021/06/24 08:50:38;;;;;;;17.88;3.25;;;;;;;33.29;33.01;100240.13;5035347;28;20028;-64
2021/06/24 08:53:03;;;;;;;32.63;3.93;;;;;;;33.38;33.20;100242.56;5049031;28;20024;-64
2021/06/24 08:55:36;;;;;;;13.90;3.53;;;;;;;33.51;32.77;100238.84;5034699;28;20259;-64
2021/06/24 08:58:02;;;;;;;18.25;3.33;;;;;;;33.55;33.01;100235.56;5034858;28;20108;-64
2021/06/24 09:00:28;;;;;;;14.20;3.75;;;;;;;33.58;32.70;100237.34;5035186;28;20026;-64
2021/06/24 09:02:54;;;;;;;41.60;4.70;;;;;;;33.57;33.34;100247.44;5041978;28;20029;-64
2021/06/24 09:05:20;;;;;;;20.88;3.80;;;;;;;33.63;33.27;100245.16;5048938;28;20048;-64
2021/06/24 09:07:54;;;;;;;19.80;4.28;;;;;;;33.65;32.88;100248.28;5044451;28;20414;-64
2021/06/24 09:10:21;;;;;;;13.30;3.30;;;;;;;33.69;32.86;100251.63;5034734;28;20032;-64
2021/06/24 09:12:55;;;;;;;12.82;3.40;;;;;;;33.74;33.28;100245.66;5035133;28;20017;-64
2021/06/24 09:15:23;;;;;;;29.92;4.40;;;;;;;33.73;34.22;100257.88;5034849;28;20390;-64
2021/06/24 09:17:49;;;;;;;14.52;3.70;;;;;;;33.85;33.45;100250.44;5034961;28;20432;-64
2021/06/24 09:20:24;;;;;;;20.35;4.15;;;;;;;33.98;32.89;100241.63;5034887;28;20025;-64
2021/06/24 09:23:04;;;;;;;23.08;4.32;;;;;;;34.15;32.85;100243.28;5034827;28;20025;-64
2021/06/24 09:25:30;;;;;;;26.67;5.18;;;;;;;34.08;32.29;100241.88;5036036;28;20033;-64
2021/06/24 09:27:55;;;;;;;19.38;4.13;;;;;;;34.10;32.96;100231.19;5042903;28;20440;-64
2021/06/24 09:30:28;;;;;;;19.90;5.50;;;;;;;34.20;32.23;100230.66;5048154;28;20324;-64
2021/06/24 09:32:53;;;;;;;19.90;4.72;;;;;;;34.23;33.14;100236.13;5038484;28;20262;-64
2021/06/24 09:35:29;;;;;;;28.45;4.85;;;;;;;34.19;32.52;100232.03;5038517;28;20034;-64
2021/06/24 09:38:00;;;;;;;19.08;4.47;;;;;;;34.24;31.95;100234.00;5052198;28;20040;-64
2021/06/24 09:40:41;;;;;;;23.38;4.20;;;;;;;34.20;32.62;100228.53;5038447;28;20037;-64
2021/06/24 09:43:12;;;;;;;27.75;5.07;;;;;;;34.29;33.13;100236.78;5038058;28;20444;-64
2021/06/24 09:45:37;;;;;;;19.30;4.95;;;;;;;34.39;32.71;100214.50;5038314;28;20029;-64
2021/06/24 09:48:07;;;;;;;24.08;4.95;;;;;;;34.49;32.33;100225.63;5038062;28;20044;-66
2021/06/24 09:50:32;;;;;;;24.05;5.10;;;;;;;34.47;32.06;100214.53;5038403;28;20037;-64
2021/06/24 09:53:08;;;;;;;24.88;5.28;;;;;;;34.49;32.65;100208.91;5037784;28;20084;-64
2021/06/24 09:55:33;;;;;;;16.35;4.60;;;;;;;34.52;32.39;100213.63;5037889;28;20025;-64
2021/06/24 09:58:16;;;;;;;26.70;5.47;;;;;;;34.62;31.94;100205.88;5038091;28;20041;-64
2021/06/24 10:00:53;;;;;;;23.50;5.35;;;;;;;34.57;31.88;100209.75;5037967;28;20278;-64
2021/06/24 10:03:19;;;;;;;20.45;5.32;;;;;;;34.58;32.09;100202.53;5046594;28;20412;-64
2021/06/24 10:05:45;;;;;;;28.20;5.15;;;;;;;34.66;32.78;100196.72;5045859;28;20021;-64
2021/06/24 10:08:11;;;;;;;23.67;5.10;;;;;;;34.71;31.41;100195.78;5037413;28;20044;-64
2021/06/24 10:10:38;;;;;;;27.23;6.40;;;;;;;34.74;31.53;100199.69;5037830;28;20381;-64
2021/06/24 10:13:09;;;;;;;19.80;5.18;;;;;;;34.80;31.78;100185.72;5037781;28;20104;-64
2021/06/24 10:15:35;;;;;;;22.05;5.95;;;;;;;34.84;32.42;100180.31;5037459;28;20021;-64
2021/06/24 10:18:01;;;;;;;22.27;5.25;;;;;;;34.72;31.48;100174.75;5037647;28;20083;-64
2021/06/24 10:20:29;;;;;;;22.95;4.90;;;;;;;34.71;31.77;100181.97;4957800;28;20553;-64
2021/06/24 10:23:10;;;;;;;25.25;5.05;;;;;;;34.82;32.12;100183.00;4988589;28;20106;-64
2021/06/24 10:25:37;;;;;;;;;;;;;;;34.86;32.48;100183.41;5058763;28;20039;-64
2021/06/24 10:28:04;;;;;;;30.08;6.32;;;;;;;34.83;31.87;100176.56;5055460;28;19947;-64
2021/06/24 10:30:38;;;;;;;22.13;5.25;;;;;;;34.90;31.36;100172.91;5055520;28;20432;-64
2021/06/24 10:33:08;;;;;;;26.00;6.22;;;;;;;34.93;31.16;100173.91;5055258;28;20028;-65
2021/06/24 10:35:47;;;;;;;29.13;5.93;;;;;;;35.02;30.81;100173.31;5055133;28;20079;-64
2021/06/24 10:38:13;;;;;;;35.15;5.03;;;;;;;35.04;32.29;100170.59;5054300;28;20056;-64
2021/06/24 10:40:43;;;;;;;22.10;4.72;;;;;;;35.08;32.51;100168.09;5055478;28;20065;-64
2021/06/24 10:43:13;;;;;;;27.35;5.30;;;;;;;35.16;32.26;100176.88;5054973;28;20029;-65
2021/06/24 10:45:41;;;;;;;18.57;4.97;;;;;;;35.24;31.99;100175.53;5055474;28;20306;-64
2021/06/24 10:48:24;;;;;;;32.08;6.95;;;;;;;35.28;31.52;100175.91;5054937;28;20116;-64
2021/06/24 10:51:03;;;;;;;25.08;5.40;;;;;;;35.36;31.77;100172.28;5055060;28;20024;-64
2021/06/24 10:53:28;;;;;;;21.52;5.72;;;;;;;35.32;31.08;100160.91;5054928;28;20039;-64
2021/06/24 10:55:55;;;;;;;25.50;4.90;;;;;;;35.44;31.04;100161.34;5056664;28;20143;-64
2021/06/24 10:58:20;;;;;;;22.60;5.40;;;;;;;35.50;31.25;100170.72;5056757;28;20679;-64
2021/06/24 11:00:50;;;;;;;24.45;5.05;;;;;;;35.63;31.95;100173.44;5056729;28;20060;-64
2021/06/24 11:03:26;;;;;;;19.55;4.80;;;;;;;35.71;31.14;100173.44;5065652;28;20082;-64
2021/06/24 11:05:54;;;;;;;31.10;5.22;;;;;;;35.81;31.54;100172.25;5064566;28;20032;-64
2021/06/24 11:08:27;;;;;;;18.52;4.63;;;;;;;35.87;31.79;100163.31;5056169;28;20049;-64
2021/06/24 11:10:58;;;;;;;30.95;5.45;;;;;;;35.91;31.21;100158.66;5057016;28;20036;-64
2021/06/24 11:13:36;;;;;;;27.55;5.32;;;;;;;35.99;30.82;100161.53;5056393;28;20052;-64
2021/06/24 11:16:15;;;;;;;24.88;5.65;;;;;;;35.98;30.71;100157.06;5056788;28;20029;-64